createdAt,value
2023-04-05T00:03:05.910Z,100.00
2023-04-05T00:08:13.423Z,100.00
2023-04-05T00:13:15.959Z,100.00
2023-04-05T00:18:23.853Z,100.00
2023-04-05T00:23:27.020Z,100.00
2023-04-05T00:28:30.106Z,100.00
2023-04-05T00:33:34.853Z,100.00
2023-04-05T00:38:37.322Z,100.00
2023-04-05T00:43:40.051Z,100.00
2023-04-05T00:48:42.474Z,100.00
2023-04-05T00:53:47.953Z,100.00
2023-04-05T00:58:52.068Z,100.00
2023-04-05T01:03:55.069Z,100.00
2023-04-05T01:08:57.828Z,100.00
2023-04-05T01:14:00.598Z,100.00
2023-04-05T01:19:04.238Z,100.00
2023-04-05T01:24:09.964Z,100.00
2023-04-05T01:29:12.292Z,100.00
2023-04-05T01:34:15.122Z,100.00
2023-04-05T01:39:17.576Z,100.00
2023-04-05T01:44:20.698Z,100.00
2023-04-05T01:49:23.050Z,100.00
2023-04-05T01:54:25.416Z,100.00
2023-04-05T01:59:27.888Z,100.00
2023-04-05T02:04:31.161Z,100.00
2023-04-05T02:09:33.818Z,100.00
2023-04-05T02:14:36.445Z,100.00
2023-04-05T02:19:46.798Z,100.00
2023-04-05T02:24:50.218Z,100.00
2023-04-05T02:29:55.736Z,100.00
2023-04-05T02:34:58.381Z,100.00
2023-04-05T02:40:01.069Z,100.00
2023-04-05T02:45:03.409Z,100.00
2023-04-05T02:50:07.048Z,100.00
2023-04-05T02:55:10.263Z,100.00
2023-04-05T03:00:13.865Z,100.00
2023-04-05T03:05:18.705Z,100.00
2023-04-05T03:10:22.369Z,100.00
2023-04-05T03:15:25.617Z,100.00
2023-04-05T03:20:28.069Z,100.00
2023-04-05T03:25:31.179Z,100.00
2023-04-05T03:30:33.863Z,100.00
2023-04-05T03:35:36.436Z,100.00
2023-04-05T03:40:38.785Z,100.00
2023-04-05T03:45:41.187Z,100.00
2023-04-05T03:50:44.103Z,100.00
2023-04-05T03:55:49.564Z,100.00
2023-04-05T04:00:52.823Z,100.00
2023-04-05T04:06:05.234Z,100.00
2023-04-05T04:11:08.206Z,100.00
2023-04-05T04:16:10.580Z,100.00
2023-04-05T04:21:15.083Z,100.00
2023-04-05T04:26:28.760Z,100.00
2023-04-05T04:31:33.602Z,100.00
2023-04-05T04:36:36.240Z,100.00
2023-04-05T04:41:38.549Z,100.00
2023-04-05T04:46:43.338Z,100.00
2023-04-05T04:51:45.663Z,100.00
2023-04-05T04:56:48.911Z,100.00
2023-04-05T05:01:51.998Z,100.00
2023-04-05T05:06:55.593Z,100.00
2023-04-05T05:11:59.731Z,100.00
2023-04-05T05:17:02.169Z,100.00
2023-04-05T05:22:04.734Z,100.00
2023-04-05T05:27:07.423Z,100.00
2023-04-05T05:32:14.263Z,100.00
2023-04-05T05:37:17.694Z,100.00
2023-04-05T05:42:21.201Z,100.00
2023-04-05T05:47:24.105Z,100.00
2023-04-05T05:52:28.330Z,100.00
2023-04-05T05:57:40.621Z,100.00
2023-04-05T06:02:50.189Z,100.00
2023-04-05T06:07:52.915Z,100.00
2023-04-05T06:12:55.511Z,100.00
2023-04-05T06:17:58.686Z,100.00
2023-04-05T06:23:01.357Z,100.00
2023-04-05T06:28:05.163Z,100.00
2023-04-05T06:33:07.921Z,100.00
2023-04-05T06:38:10.618Z,100.00
2023-04-05T06:43:13.045Z,100.00
2023-04-05T06:48:15.484Z,100.00
2023-04-05T06:53:19.611Z,100.00
2023-04-05T06:58:21.946Z,100.00
2023-04-05T07:03:25.059Z,100.00
2023-04-05T07:08:37.823Z,100.00
2023-04-05T07:13:40.363Z,100.00
2023-04-05T07:18:43.576Z,100.00
2023-04-05T07:23:46.512Z,100.00
2023-04-05T07:28:58.870Z,100.00
2023-04-05T07:34:01.414Z,100.00
2023-04-05T07:39:05.300Z,100.00
2023-04-05T07:44:07.617Z,100.00
2023-04-05T07:49:09.995Z,100.00
2023-04-05T07:54:12.503Z,96.96
2023-04-05T07:59:15.420Z,99.07
2023-04-05T08:04:18.468Z,97.30
2023-04-05T08:09:21.232Z,93.75
2023-04-05T08:14:24.239Z,93.45
2023-04-05T08:19:27.383Z,89.94
2023-04-05T08:24:29.711Z,89.40
2023-04-05T08:29:32.478Z,81.95
2023-04-05T08:34:34.851Z,80.43
2023-04-05T08:39:37.197Z,78.63
2023-04-05T08:44:49.736Z,76.70
2023-04-05T08:49:56.960Z,76.13
2023-04-05T08:54:59.647Z,71.82
2023-04-05T09:00:02.229Z,71.94
2023-04-05T09:05:04.585Z,71.27
2023-04-05T09:10:07.065Z,69.61
2023-04-05T09:15:09.982Z,65.11
2023-04-05T09:20:12.702Z,63.94
2023-04-05T09:25:15.056Z,60.02
2023-04-05T09:30:19.008Z,60.14
2023-04-05T09:35:22.568Z,57.76
2023-04-05T09:40:25.736Z,53.44
2023-04-05T09:45:28.467Z,56.68
2023-04-05T09:50:33.002Z,57.01
2023-04-05T09:55:35.388Z,55.09
2023-04-05T10:00:37.720Z,55.36
2023-04-05T10:05:42.286Z,53.23
2023-04-05T10:10:44.785Z,55.00
2023-04-05T10:15:49.050Z,52.79
2023-04-05T10:20:52.215Z,52.77
2023-04-05T10:25:54.709Z,54.59
2023-04-05T10:30:57.492Z,54.72
2023-04-05T10:36:01.110Z,56.20
2023-04-05T10:41:03.871Z,54.12
2023-04-05T10:46:06.252Z,54.51
2023-04-05T10:51:09.479Z,53.58
2023-04-05T10:56:11.893Z,52.72
2023-04-05T11:01:17.468Z,52.21
2023-04-05T11:06:19.922Z,51.46
2023-04-05T11:11:22.677Z,52.55
2023-04-05T11:16:26.031Z,52.22
2023-04-05T11:21:28.739Z,52.08
2023-04-05T11:26:31.430Z,51.39
2023-04-05T11:31:34.765Z,49.32
2023-04-05T11:36:37.890Z,49.88
2023-04-05T11:41:40.208Z,49.45
2023-04-05T11:46:42.673Z,51.46
2023-04-05T11:51:48.685Z,49.53
2023-04-05T11:56:51.993Z,50.45
2023-04-05T12:01:54.369Z,49.96
2023-04-05T12:07:02.998Z,49.11
2023-04-05T12:12:05.416Z,48.57
2023-04-05T12:17:08.646Z,49.65
2023-04-05T12:22:12.167Z,48.86
2023-04-05T12:27:15.749Z,48.79
2023-04-05T12:32:18.282Z,49.70
2023-04-05T12:37:20.765Z,48.31
2023-04-05T12:42:23.979Z,47.33
2023-04-05T12:47:27.236Z,49.07
2023-04-05T12:52:29.682Z,49.65
2023-04-05T12:57:32.229Z,48.41
2023-04-05T13:02:34.570Z,48.02
2023-04-05T13:07:37.824Z,47.74
2023-04-05T13:12:40.106Z,46.00
2023-04-05T13:17:42.468Z,45.92
2023-04-05T13:22:45.300Z,44.73
2023-04-05T13:27:48.677Z,44.35
2023-04-05T13:32:53.423Z,44.80
2023-04-05T13:38:05.899Z,45.57
2023-04-05T13:43:08.589Z,47.90
2023-04-05T13:48:11.407Z,47.85
2023-04-05T13:53:13.898Z,47.63
2023-04-05T13:58:16.375Z,45.97
2023-04-05T14:03:18.829Z,45.99
2023-04-05T14:08:21.580Z,44.89
2023-04-05T14:13:24.165Z,45.41
2023-04-05T14:18:27.815Z,48.41
2023-04-05T14:23:30.280Z,48.80
2023-04-05T14:28:33.473Z,49.60
2023-04-05T14:33:36.501Z,47.64
2023-04-05T14:38:39.654Z,48.42
2023-04-05T14:43:43.117Z,46.08
2023-04-05T14:48:45.499Z,45.79
2023-04-05T14:53:48.175Z,45.79
2023-04-05T14:58:50.731Z,45.23
2023-04-05T15:03:54.056Z,45.46
2023-04-05T15:08:56.862Z,46.33
2023-04-05T15:13:59.243Z,47.76
2023-04-05T15:19:03.262Z,47.60
2023-04-05T15:24:05.655Z,47.53
2023-04-05T15:29:08.118Z,45.34
2023-04-05T15:34:10.532Z,46.11
2023-04-05T15:39:13.597Z,44.66
2023-04-05T15:44:16.528Z,45.99
2023-04-05T15:49:19.287Z,47.40
2023-04-05T15:54:21.767Z,46.76
2023-04-05T15:59:24.534Z,47.22
2023-04-05T16:04:28.104Z,47.54
2023-04-05T16:09:31.342Z,47.46
2023-04-05T16:14:33.793Z,47.27
2023-04-05T16:19:36.516Z,47.69
2023-04-05T16:24:39.829Z,48.42
2023-04-05T16:29:42.294Z,47.61
2023-04-05T16:34:45.443Z,50.03
2023-04-05T16:39:48.188Z,51.37
2023-04-05T16:44:51.803Z,51.43
2023-04-05T16:49:54.363Z,52.41
2023-04-05T16:54:57.490Z,52.46
2023-04-05T17:00:00.629Z,53.71
2023-04-05T17:05:03.922Z,53.69
2023-04-05T17:10:06.346Z,53.19
2023-04-05T17:15:09.056Z,54.49
2023-04-05T17:20:12.189Z,53.64
2023-04-05T17:25:15.752Z,56.32
2023-04-05T17:30:18.242Z,56.69
2023-04-05T17:35:20.980Z,58.88
2023-04-05T17:40:24.262Z,60.70
2023-04-05T17:45:27.559Z,59.72
2023-04-05T17:50:30.964Z,60.92
2023-04-05T17:55:34.258Z,62.01
2023-04-05T18:00:36.981Z,64.76
2023-04-05T18:05:41.410Z,62.79
2023-04-05T18:10:44.765Z,65.30
2023-04-05T18:15:48.268Z,64.14
2023-04-05T18:20:51.584Z,65.67
2023-04-05T18:25:54.759Z,66.06
2023-04-05T18:30:57.090Z,65.14
2023-04-05T18:35:59.428Z,64.27
2023-04-05T18:41:03.265Z,65.30
2023-04-05T18:46:05.678Z,66.76
2023-04-05T18:51:10.164Z,67.63
2023-04-05T18:56:13.415Z,67.19
2023-04-05T19:01:17.429Z,68.51
2023-04-05T19:06:28.028Z,71.72
2023-04-05T19:11:31.325Z,73.79
2023-04-05T19:16:43.778Z,69.87
2023-04-05T19:21:46.337Z,72.03
2023-04-05T19:26:48.706Z,74.15
2023-04-05T19:31:51.951Z,73.66
2023-04-05T19:36:54.676Z,78.01
2023-04-05T19:41:57.749Z,78.04
2023-04-05T19:47:03.013Z,80.83
2023-04-05T19:52:05.855Z,84.92
2023-04-05T19:57:09.708Z,85.69
2023-04-05T20:02:12.210Z,83.68
2023-04-05T20:07:14.969Z,84.37
2023-04-05T20:12:20.368Z,86.96
2023-04-05T20:17:28.332Z,88.01
2023-04-05T20:22:31.688Z,88.14
2023-04-05T20:27:34.200Z,91.95
2023-04-05T20:32:36.715Z,95.03
2023-04-05T20:37:39.189Z,99.48
2023-04-05T20:42:42.848Z,100.00
2023-04-05T20:47:52.633Z,100.00
2023-04-05T20:52:55.143Z,100.00
2023-04-05T20:57:57.865Z,100.00
2023-04-05T21:03:00.630Z,100.00
2023-04-05T21:08:03.645Z,100.00
2023-04-05T21:13:06.059Z,100.00
2023-04-05T21:18:10.404Z,100.00
2023-04-05T21:23:12.779Z,100.00
2023-04-05T21:28:16.221Z,100.00
2023-04-05T21:33:19.430Z,100.00
2023-04-05T21:38:21.817Z,100.00
2023-04-05T21:43:24.383Z,100.00
2023-04-05T21:48:27.909Z,100.00
2023-04-05T21:53:30.742Z,100.00
2023-04-05T21:58:33.957Z,100.00
2023-04-05T22:03:36.537Z,100.00
2023-04-05T22:08:38.931Z,100.00
2023-04-05T22:13:41.533Z,100.00
2023-04-05T22:18:46.199Z,100.00
2023-04-05T22:23:48.544Z,100.00
2023-04-05T22:28:51.789Z,100.00
2023-04-05T22:33:54.911Z,100.00
2023-04-05T22:38:57.302Z,100.00
2023-04-05T22:44:09.643Z,100.00
2023-04-05T22:49:12.056Z,100.00
2023-04-05T22:54:24.432Z,100.00
2023-04-05T22:59:28.169Z,100.00
2023-04-05T23:04:31.362Z,100.00
2023-04-05T23:09:33.704Z,100.00
2023-04-05T23:14:36.177Z,100.00
2023-04-05T23:19:38.700Z,100.00
2023-04-05T23:24:41.245Z,100.00
2023-04-05T23:29:44.479Z,100.00
2023-04-05T23:34:46.808Z,100.00
2023-04-05T23:39:49.968Z,100.00
2023-04-05T23:44:53.090Z,100.00
2023-04-05T23:49:56.170Z,100.00
2023-04-05T23:54:59.326Z,100.00
